Time,TemperatureF,DewpointF,PressureIn,WindDirection,WindDirectionDegrees,WindSpeedMPH,WindSpeedGustMPH,Humidity,HourlyPrecipIn,Conditions,Clouds,dailyrainin,SoftwareType,DateUTC
2013-10-13 00:01:00,47.6,46.5,30.19,NNW,340,0.0,0.0,96,0.00,,,0.00,WUHU216DAVISVP2,2013-10-13 07:01:00,
2013-10-13 00:06:00,47.6,46.5,30.19,NNW,340,0.0,0.0,96,0.00,,,0.00,WUHU216DAVISVP2,2013-10-13 07:06:00,
2013-10-13 00:11:00,47.6,46.5,30.19,NNW,340,0.0,0.0,96,0.00,,,0.00,WUHU216DAVISVP2,2013-10-13 07:11:00,
2013-10-13 00:16:00,47.5,46.4,30.19,NNW,340,0.0,0.0,96,0.00,,,0.00,WUHU216DAVISVP2,2013-10-13 07:16:00,
2013-10-13 00:21:00,47.4,46.3,30.20,NNW,340,0.0,0.0,96,0.00,,,0.00,WUHU216DAVISVP2,2013-10-13 07:21:00,
2013-10-13 00:26:00,47.4,46.3,30.20,NNW,340,0.0,0.0,96,0.00,,,0.00,WUHU216DAVISVP2,2013-10-13 07:26:00,
2013-10-13 00:31:00,47.4,46.3,30.20,NNW,340,0.0,0.0,96,0.00,,,0.00,WUHU216DAVISVP2,2013-10-13 07:31:00,
2013-10-13 00:36:00,47.4,46.3,30.20,NNW,340,0.0,0.0,96,0.00,,,0.00,WUHU216DAVISVP2,2013-10-13 07:36:00,
2013-10-13 00:41:00,47.3,46.2,30.20,NNW,340,0.0,0.0,96,0.00,,,0.00,WUHU216DAVISVP2,2013-10-13 07:41:00,
2013-10-13 00:46:00,47.3,46.2,30.20,NNW,340,0.0,0.0,96,0.00,,,0.00,WUHU216DAVISVP2,2013-10-13 07:46:00,
2013-10-13 00:51:00,47.2,46.1,30.20,NNW,340,0.0,0.0,96,0.00,,,0.00,WUHU216DAVISVP2,2013-10-13 07:51:00,
2013-10-13 00:56:00,47.2,46.4,30.21,NNW,340,0.0,0.0,97,0.00,,,0.00,WUHU216DAVISVP2,2013-10-13 07:56:00,
2013-10-13 01:01:00,47.2,46.4,30.21,NNW,340,0.0,0.0,97,0.00,,,0.00,WUHU216DAVISVP2,2013-10-13 08:01:00,
2013-10-13 01:06:00,47.1,46.3,30.21,NNW,340,0.0,0.0,97,0.00,,,0.00,WUHU216DAVISVP2,2013-10-13 08:06:00,
2013-10-13 01:11:00,47.1,46.3,30.21,NNW,340,0.0,0.0,97,0.00,,,0.00,WUHU216DAVISVP2,2013-10-13 08:11:00,
2013-10-13 01:16:00,47.0,46.2,30.21,NNW,340,0.0,0.0,97,0.00,,,0.00,WUHU216DAVISVP2,2013-10-13 08:16:00,
2013-10-13 01:21:00,47.0,46.2,30.21,NNW,340,0.0,0.0,97,0.00,,,0.00,WUHU216DAVISVP2,2013-10-13 08:21:00,
2013-10-13 01:26:00,46.9,46.1,30.21,NNW,340,0.0,0.0,97,0.00,,,0.00,WUHU216DAVISVP2,2013-10-13 08:26:00,
2013-10-13 01:31:00,47.0,46.2,30.21,NNW,340,0.0,0.0,97,0.00,,,0.00,WUHU216DAVISVP2,2013-10-13 08:31:00,
2013-10-13 01:36:00,46.9,46.1,30.20,NNW,340,0.0,0.0,97,0.00,,,0.00,WUHU216DAVISVP2,2013-10-13 08:36:00,
2013-10-13 01:41:00,47.0,46.2,30.20,NNW,340,0.0,0.0,97,0.00,,,0.00,WUHU216DAVISVP2,2013-10-13 08:41:00,
2013-10-13 01:46:00,47.0,46.2,30.21,NNW,340,0.0,0.0,97,0.00,,,0.00,WUHU216DAVISVP2,2013-10-13 08:46:00,
2013-10-13 01:51:00,47.0,46.2,30.21,NNW,340,0.0,0.0,97,0.00,,,0.00,WUHU216DAVISVP2,2013-10-13 08:51:00,
2013-10-13 01:56:00,47.0,46.2,30.21,NNW,340,0.0,0.0,97,0.00,,,0.00,WUHU216DAVISVP2,2013-10-13 08:56:00,
2013-10-13 02:01:00,47.0,46.2,30.21,NNW,340,0.0,0.0,97,0.00,,,0.00,WUHU216DAVISVP2,2013-10-13 09:01:00,
2013-10-13 02:06:00,47.0,46.2,30.21,NNW,340,0.0,0.0,97,0.00,,,0.00,WUHU216DAVISVP2,2013-10-13 09:06:00,
2013-10-13 02:11:00,47.0,46.2,30.21,NNW,340,0.0,0.0,97,0.00,,,0.00,WUHU216DAVISVP2,2013-10-13 09:11:00,
2013-10-13 02:16:00,47.0,46.2,30.21,NNW,340,0.0,0.0,97,0.00,,,0.00,WUHU216DAVISVP2,2013-10-13 09:16:00,
2013-10-13 02:21:00,47.0,46.2,30.21,NNW,340,0.0,0.0,97,0.00,,,0.00,WUHU216DAVISVP2,2013-10-13 09:21:00,
2013-10-13 02:26:00,47.0,46.2,30.21,NNW,340,0.0,0.0,97,0.00,,,0.00,WUHU216DAVISVP2,2013-10-13 09:26:00,
2013-10-13 02:31:00,47.0,46.2,30.21,NNW,340,0.0,0.0,97,0.00,,,0.00,WUHU216DAVISVP2,2013-10-13 09:31:00,
2013-10-13 02:36:00,47.0,46.2,30.21,NNW,340,0.0,0.0,97,0.00,,,0.00,WUHU216DAVISVP2,2013-10-13 09:36:00,
2013-10-13 02:41:00,47.0,46.2,30.22,NNW,340,0.0,0.0,97,0.00,,,0.00,WUHU216DAVISVP2,2013-10-13 09:41:00,
2013-10-13 02:46:00,47.0,46.2,30.22,NNW,340,0.0,0.0,97,0.00,,,0.00,WUHU216DAVISVP2,2013-10-13 09:46:00,
2013-10-13 02:51:00,47.0,46.2,30.22,NNW,340,0.0,0.0,97,0.00,,,0.00,WUHU216DAVISVP2,2013-10-13 09:51:00,
2013-10-13 02:56:00,47.0,46.2,30.21,NNW,340,0.0,0.0,97,0.00,,,0.00,WUHU216DAVISVP2,2013-10-13 09:56:00,
2013-10-13 03:01:00,46.9,46.1,30.22,NNW,340,0.0,0.0,97,0.00,,,0.00,WUHU216DAVISVP2,2013-10-13 10:01:00,
2013-10-13 03:06:00,46.9,46.1,30.22,NNW,340,0.0,0.0,97,0.00,,,0.00,WUHU216DAVISVP2,2013-10-13 10:06:00,
2013-10-13 03:11:00,46.8,46.0,30.22,NNW,340,0.0,1.0,97,0.00,,,0.00,WUHU216DAVISVP2,2013-10-13 10:11:00,
2013-10-13 03:16:00,46.6,45.8,30.22,NNW,340,0.0,1.0,97,0.00,,,0.00,WUHU216DAVISVP2,2013-10-13 10:16:00,
2013-10-13 03:21:00,46.5,45.7,30.22,NNW,340,0.0,0.0,97,0.00,,,0.00,WUHU216DAVISVP2,2013-10-13 10:21:00,
2013-10-13 03:26:00,46.3,45.5,30.22,NNW,340,0.0,0.0,97,0.00,,,0.00,WUHU216DAVISVP2,2013-10-13 10:26:00,
2013-10-13 03:31:00,46.2,45.1,30.22,NNW,340,0.0,0.0,96,0.00,,,0.00,WUHU216DAVISVP2,2013-10-13 10:31:00,
2013-10-13 03:36:00,46.1,45.0,30.22,NNW,340,0.0,0.0,96,0.00,,,0.00,WUHU216DAVISVP2,2013-10-13 10:36:00,
2013-10-13 03:41:00,45.9,45.1,30.22,NNW,340,0.0,0.0,97,0.00,,,0.00,WUHU216DAVISVP2,2013-10-13 10:41:00,
2013-10-13 03:46:00,45.8,45.0,30.22,NNW,340,0.0,0.0,97,0.00,,,0.00,WUHU216DAVISVP2,2013-10-13 10:46:00,
2013-10-13 03:51:00,45.7,44.6,30.22,NNW,340,0.0,0.0,96,0.00,,,0.00,WUHU216DAVISVP2,2013-10-13 10:51:00,
2013-10-13 03:56:00,45.5,44.4,30.22,NNW,340,0.0,0.0,96,0.00,,,0.00,WUHU216DAVISVP2,2013-10-13 10:56:00,
2013-10-13 04:01:00,45.1,44.0,30.22,NNW,340,0.0,0.0,96,0.00,,,0.00,WUHU216DAVISVP2,2013-10-13 11:01:00,
2013-10-13 04:06:00,44.8,43.7,30.22,NNW,340,0.0,0.0,96,0.00,,,0.00,WUHU216DAVISVP2,2013-10-13 11:06:00,
2013-10-13 04:11:00,44.6,43.5,30.22,NNW,340,0.0,0.0,96,0.00,,,0.00,WUHU216DAVISVP2,2013-10-13 11:11:00,
2013-10-13 04:16:00,44.5,43.4,30.22,NNW,340,0.0,0.0,96,0.00,,,0.00,WUHU216DAVISVP2,2013-10-13 11:16:00,
2013-10-13 04:21:00,44.3,43.2,30.23,NNW,340,0.0,0.0,96,0.00,,,0.00,WUHU216DAVISVP2,2013-10-13 11:21:00,
2013-10-13 04:26:00,44.1,43.0,30.22,NNW,340,0.0,0.0,96,0.00,,,0.00,WUHU216DAVISVP2,2013-10-13 11:26:00,
2013-10-13 04:31:00,43.8,42.7,30.23,NNW,340,0.0,0.0,96,0.00,,,0.00,WUHU216DAVISVP2,2013-10-13 11:31:00,
2013-10-13 04:36:00,43.7,42.6,30.23,NNW,340,0.0,0.0,96,0.00,,,0.00,WUHU216DAVISVP2,2013-10-13 11:36:00,
2013-10-13 04:41:00,43.7,42.9,30.23,NNW,340,0.0,0.0,97,0.00,,,0.00,WUHU216DAVISVP2,2013-10-13 11:41:00,
2013-10-13 04:46:00,43.6,42.8,30.23,NNW,340,0.0,0.0,97,0.00,,,0.00,WUHU216DAVISVP2,2013-10-13 11:46:00,
2013-10-13 04:51:00,43.7,42.9,30.24,NNW,340,0.0,0.0,97,0.00,,,0.00,WUHU216DAVISVP2,2013-10-13 11:51:00,
2013-10-13 04:56:00,43.7,42.9,30.24,NNW,340,0.0,0.0,97,0.00,,,0.00,WUHU216DAVISVP2,2013-10-13 11:56:00,
2013-10-13 05:01:00,43.6,42.8,30.24,NNW,340,0.0,0.0,97,0.00,,,0.00,WUHU216DAVISVP2,2013-10-13 12:01:00,
2013-10-13 05:06:00,43.4,42.6,30.24,NNW,340,0.0,0.0,97,0.00,,,0.00,WUHU216DAVISVP2,2013-10-13 12:06:00,
2013-10-13 05:11:00,43.2,42.4,30.24,NNW,340,0.0,0.0,97,0.00,,,0.00,WUHU216DAVISVP2,2013-10-13 12:11:00,
2013-10-13 05:16:00,43.1,42.3,30.24,NNW,340,0.0,0.0,97,0.00,,,0.00,WUHU216DAVISVP2,2013-10-13 12:16:00,
2013-10-13 05:21:00,43.0,42.2,30.24,NNW,340,0.0,0.0,97,0.00,,,0.00,WUHU216DAVISVP2,2013-10-13 12:21:00,
2013-10-13 05:26:00,43.0,42.2,30.24,NNW,340,0.0,0.0,97,0.00,,,0.00,WUHU216DAVISVP2,2013-10-13 12:26:00,
2013-10-13 05:31:00,42.9,42.1,30.24,NNW,340,0.0,0.0,97,0.00,,,0.00,WUHU216DAVISVP2,2013-10-13 12:31:00,
2013-10-13 05:36:00,42.7,41.9,30.25,NNW,340,0.0,0.0,97,0.00,,,0.00,WUHU216DAVISVP2,2013-10-13 12:36:00,
2013-10-13 05:41:00,42.7,41.9,30.25,NNW,340,0.0,0.0,97,0.00,,,0.00,WUHU216DAVISVP2,2013-10-13 12:41:00,
2013-10-13 05:46:00,42.7,41.9,30.25,NNW,340,0.0,0.0,97,0.00,,,0.00,WUHU216DAVISVP2,2013-10-13 12:46:00,
2013-10-13 05:51:00,42.7,41.9,30.25,NNW,340,0.0,0.0,97,0.00,,,0.00,WUHU216DAVISVP2,2013-10-13 12:51:00,
2013-10-13 05:56:00,42.8,42.0,30.25,NNW,340,0.0,0.0,97,0.00,,,0.00,WUHU216DAVISVP2,2013-10-13 12:56:00,
2013-10-13 06:01:00,42.8,42.0,30.25,NNW,340,0.0,0.0,97,0.00,,,0.00,WUHU216DAVISVP2,2013-10-13 13:01:00,
2013-10-13 06:06:00,42.8,42.0,30.25,NNW,340,0.0,0.0,97,0.00,,,0.00,WUHU216DAVISVP2,2013-10-13 13:06:00,
2013-10-13 06:11:00,42.9,42.1,30.25,NNW,340,0.0,0.0,97,0.00,,,0.00,WUHU216DAVISVP2,2013-10-13 13:11:00,
2013-10-13 06:16:00,42.8,42.3,30.25,NNW,340,0.0,0.0,98,0.00,,,0.00,WUHU216DAVISVP2,2013-10-13 13:16:00,
2013-10-13 06:21:00,42.9,42.4,30.25,NNW,340,0.0,0.0,98,0.00,,,0.00,WUHU216DAVISVP2,2013-10-13 13:21:00,
2013-10-13 06:26:00,42.9,42.4,30.25,NNW,340,0.0,0.0,98,0.00,,,0.00,WUHU216DAVISVP2,2013-10-13 13:26:00,
2013-10-13 06:31:00,43.0,42.5,30.25,NNW,340,0.0,0.0,98,0.00,,,0.00,WUHU216DAVISVP2,2013-10-13 13:31:00,
2013-10-13 06:36:00,43.0,42.5,30.25,NNW,340,0.0,0.0,98,0.00,,,0.00,WUHU216DAVISVP2,2013-10-13 13:36:00,
2013-10-13 06:41:00,43.1,42.6,30.25,NNW,340,0.0,0.0,98,0.00,,,0.00,WUHU216DAVISVP2,2013-10-13 13:41:00,
2013-10-13 06:46:00,43.1,42.6,30.25,NNW,340,0.0,0.0,98,0.00,,,0.00,WUHU216DAVISVP2,2013-10-13 13:46:00,
2013-10-13 06:51:00,43.2,42.7,30.26,NNW,340,0.0,0.0,98,0.00,,,0.00,WUHU216DAVISVP2,2013-10-13 13:51:00,
2013-10-13 06:56:00,43.2,42.7,30.25,NNW,340,0.0,0.0,98,0.00,,,0.00,WUHU216DAVISVP2,2013-10-13 13:56:00,
2013-10-13 07:01:00,43.3,42.8,30.26,NNW,340,0.0,0.0,98,0.00,,,0.00,WUHU216DAVISVP2,2013-10-13 14:01:00,
2013-10-13 07:06:00,43.4,42.8,30.26,NE,39,0.0,1.0,98,0.00,,,0.00,WUHU216DAVISVP2,2013-10-13 14:06:00,
2013-10-13 07:11:00,43.5,42.9,30.26,NE,39,0.0,1.0,98,0.00,,,0.00,WUHU216DAVISVP2,2013-10-13 14:11:00,
2013-10-13 07:16:00,43.5,42.9,30.26,NE,39,0.0,1.0,98,0.00,,,0.00,WUHU216DAVISVP2,2013-10-13 14:16:00,
2013-10-13 07:21:00,43.6,43.1,30.26,NE,39,0.0,1.0,98,0.00,,,0.00,WUHU216DAVISVP2,2013-10-13 14:21:00,
2013-10-13 07:26:00,43.6,43.0,30.26,NE,39,0.0,0.0,98,0.00,,,0.00,WUHU216DAVISVP2,2013-10-13 14:26:00,
2013-10-13 07:31:00,43.6,43.0,30.26,NE,39,0.0,0.0,98,0.00,,,0.00,WUHU216DAVISVP2,2013-10-13 14:31:00,
2013-10-13 07:36:00,43.6,43.0,30.26,NE,39,0.0,0.0,98,0.00,,,0.00,WUHU216DAVISVP2,2013-10-13 14:36:00,
2013-10-13 07:41:00,43.5,42.9,30.26,NE,39,0.0,0.0,98,0.00,,,0.00,WUHU216DAVISVP2,2013-10-13 14:41:00,
2013-10-13 07:46:00,43.4,42.8,30.26,NE,39,0.0,0.0,98,0.00,,,0.00,WUHU216DAVISVP2,2013-10-13 14:46:00,
2013-10-13 07:51:00,43.4,42.8,30.26,NE,39,0.0,1.0,98,0.00,,,0.00,WUHU216DAVISVP2,2013-10-13 14:51:00,
2013-10-13 07:56:00,43.4,42.8,30.26,NE,39,0.0,1.0,98,0.00,,,0.00,WUHU216DAVISVP2,2013-10-13 14:56:00,
2013-10-13 08:01:00,43.4,42.8,30.26,NE,39,0.0,0.0,98,0.00,,,0.00,WUHU216DAVISVP2,2013-10-13 15:01:00,
2013-10-13 08:06:00,43.4,42.8,30.26,NE,42,0.0,0.0,98,0.00,,,0.00,WUHU216DAVISVP2,2013-10-13 15:06:00,
2013-10-13 08:11:00,43.5,42.9,30.27,NE,42,0.0,0.0,98,0.00,,,0.00,WUHU216DAVISVP2,2013-10-13 15:11:00,
2013-10-13 08:16:00,43.7,43.1,30.27,NE,42,0.0,2.0,98,0.00,,,0.00,WUHU216DAVISVP2,2013-10-13 15:16:00,
2013-10-13 08:21:00,43.9,43.3,30.27,NE,42,0.0,2.0,98,0.00,,,0.00,WUHU216DAVISVP2,2013-10-13 15:21:00,
2013-10-13 08:26:00,44.0,43.4,30.27,NE,42,0.0,2.0,98,0.00,,,0.00,WUHU216DAVISVP2,2013-10-13 15:26:00,
2013-10-13 08:31:00,44.2,43.6,30.27,NE,42,0.0,0.0,98,0.00,,,0.00,WUHU216DAVISVP2,2013-10-13 15:31:00,
2013-10-13 08:36:00,44.3,43.7,30.27,NE,44,0.0,2.0,98,0.00,,,0.00,WUHU216DAVISVP2,2013-10-13 15:36:00,
2013-10-13 08:41:00,44.5,43.9,30.27,NE,44,0.0,2.0,98,0.00,,,0.00,WUHU216DAVISVP2,2013-10-13 15:41:00,
2013-10-13 08:46:00,44.7,43.9,30.28,NE,44,0.0,1.0,97,0.00,,,0.00,WUHU216DAVISVP2,2013-10-13 15:46:00,
2013-10-13 08:51:00,44.9,44.1,30.28,NE,44,0.0,1.0,97,0.00,,,0.00,WUHU216DAVISVP2,2013-10-13 15:51:00,
2013-10-13 08:56:00,45.1,44.3,30.28,NE,44,0.0,0.0,97,0.00,,,0.00,WUHU216DAVISVP2,2013-10-13 15:56:00,
2013-10-13 09:01:00,45.3,44.5,30.28,NE,44,0.0,0.0,97,0.00,,,0.00,WUHU216DAVISVP2,2013-10-13 16:01:00,
2013-10-13 09:06:00,45.5,44.7,30.29,NE,44,1.0,1.0,97,0.00,,,0.00,WUHU216DAVISVP2,2013-10-13 16:06:00,
2013-10-13 09:11:00,45.6,44.5,30.29,NE,44,0.0,2.0,96,0.00,,,0.00,WUHU216DAVISVP2,2013-10-13 16:11:00,
2013-10-13 09:16:00,45.7,44.6,30.29,NE,44,0.0,2.0,96,0.00,,,0.00,WUHU216DAVISVP2,2013-10-13 16:16:00,
2013-10-13 09:21:00,45.8,44.4,30.29,North,360,0.0,1.0,95,0.00,,,0.00,WUHU216DAVISVP2,2013-10-13 16:21:00,
2013-10-13 09:26:00,45.9,44.5,30.29,NNW,342,1.0,2.0,95,0.00,,,0.00,WUHU216DAVISVP2,2013-10-13 16:26:00,
2013-10-13 09:31:00,46.0,44.6,30.30,NNE,24,1.0,2.0,95,0.00,,,0.00,WUHU216DAVISVP2,2013-10-13 16:31:00,
2013-10-13 09:36:00,45.9,44.5,30.30,NW,324,1.0,2.0,95,0.00,,,0.00,WUHU216DAVISVP2,2013-10-13 16:36:00,
2013-10-13 09:41:00,45.9,44.5,30.30,NNE,24,2.0,2.0,95,0.00,,,0.00,WUHU216DAVISVP2,2013-10-13 16:41:00,
2013-10-13 09:46:00,46.0,44.6,30.30,North,355,0.0,2.0,95,0.00,,,0.00,WUHU216DAVISVP2,2013-10-13 16:46:00,
2013-10-13 09:51:00,46.1,44.7,30.30,North,355,0.0,1.0,95,0.00,,,0.00,WUHU216DAVISVP2,2013-10-13 16:51:00,
2013-10-13 09:56:00,46.1,44.7,30.31,North,355,0.0,2.0,95,0.00,,,0.00,WUHU216DAVISVP2,2013-10-13 16:56:00,
2013-10-13 10:01:00,46.3,44.9,30.31,North,355,0.0,2.0,95,0.00,,,0.00,WUHU216DAVISVP2,2013-10-13 17:01:00,
2013-10-13 10:06:00,46.4,45.0,30.30,North,355,0.0,0.0,95,0.00,,,0.00,WUHU216DAVISVP2,2013-10-13 17:06:00,
2013-10-13 10:11:00,46.5,45.1,30.30,NW,318,0.0,1.0,95,0.00,,,0.00,WUHU216DAVISVP2,2013-10-13 17:11:00,
2013-10-13 10:16:00,46.5,45.1,30.30,NW,318,0.0,1.0,95,0.00,,,0.00,WUHU216DAVISVP2,2013-10-13 17:16:00,
2013-10-13 10:21:00,46.5,44.8,30.30,NW,318,0.0,1.0,94,0.00,,,0.00,WUHU216DAVISVP2,2013-10-13 17:21:00,
2013-10-13 10:26:00,46.9,45.5,30.30,NW,313,0.0,1.0,95,0.00,,,0.00,WUHU216DAVISVP2,2013-10-13 17:26:00,
2013-10-13 10:31:00,47.4,46.0,30.30,NW,312,0.0,1.0,95,0.00,,,0.00,WUHU216DAVISVP2,2013-10-13 17:31:00,
2013-10-13 10:36:00,47.8,46.1,30.30,NW,318,0.0,2.0,94,0.00,,,0.00,WUHU216DAVISVP2,2013-10-13 17:36:00,
2013-10-13 10:41:00,47.9,45.9,30.30,NNW,346,2.0,2.0,93,0.00,,,0.00,WUHU216DAVISVP2,2013-10-13 17:41:00,
2013-10-13 10:46:00,47.8,45.5,30.30,NNW,333,2.0,2.0,92,0.00,,,0.00,WUHU216DAVISVP2,2013-10-13 17:46:00,
2013-10-13 10:51:00,47.9,45.9,30.30,NNW,335,0.0,2.0,93,0.00,,,0.00,WUHU216DAVISVP2,2013-10-13 17:51:00,
2013-10-13 10:56:00,48.3,46.3,30.30,NNW,333,0.0,1.0,93,0.00,,,0.00,WUHU216DAVISVP2,2013-10-13 17:56:00,
2013-10-13 11:01:00,48.5,46.0,30.30,NNW,337,0.0,4.0,91,0.00,,,0.00,WUHU216DAVISVP2,2013-10-13 18:01:00,
2013-10-13 11:06:00,48.5,45.7,30.30,NNW,337,1.0,4.0,90,0.00,,,0.00,WUHU216DAVISVP2,2013-10-13 18:06:00,
2013-10-13 11:11:00,48.4,45.6,30.29,NNW,348,1.0,4.0,90,0.00,,,0.00,WUHU216DAVISVP2,2013-10-13 18:11:00,
2013-10-13 11:16:00,48.3,45.5,30.29,NNE,28,0.0,3.0,90,0.00,,,0.00,WUHU216DAVISVP2,2013-10-13 18:16:00,
2013-10-13 11:21:00,48.3,45.5,30.30,NNE,26,0.0,2.0,90,0.00,,,0.00,WUHU216DAVISVP2,2013-10-13 18:21:00,
2013-10-13 11:26:00,48.5,46.0,30.30,NNE,19,0.0,1.0,91,0.00,,,0.00,WUHU216DAVISVP2,2013-10-13 18:26:00,
2013-10-13 11:31:00,49.0,46.4,30.29,NNW,333,3.0,3.0,91,0.00,,,0.00,WUHU216DAVISVP2,2013-10-13 18:31:00,
2013-10-13 11:36:00,49.2,46.6,30.29,SSW,192,0.0,3.0,91,0.00,,,0.00,WUHU216DAVISVP2,2013-10-13 18:36:00,
2013-10-13 11:41:00,49.6,47.0,30.29,WNW,301,0.0,4.0,91,0.00,,,0.00,WUHU216DAVISVP2,2013-10-13 18:41:00,
2013-10-13 11:46:00,49.6,46.5,30.29,North,11,1.0,4.0,89,0.00,,,0.00,WUHU216DAVISVP2,2013-10-13 18:46:00,
2013-10-13 11:51:00,49.7,46.6,30.30,NNW,342,0.0,4.0,89,0.00,,,0.00,WUHU216DAVISVP2,2013-10-13 18:51:00,
2013-10-13 11:56:00,50.1,47.2,30.29,West,277,0.0,3.0,90,0.00,,,0.00,WUHU216DAVISVP2,2013-10-13 18:56:00,
2013-10-13 12:01:00,50.2,47.1,30.30,SW,234,0.0,2.0,89,0.00,,,0.00,WUHU216DAVISVP2,2013-10-13 19:01:00,
2013-10-13 12:06:00,50.2,46.8,30.30,NNW,336,0.0,2.0,88,0.00,,,0.00,WUHU216DAVISVP2,2013-10-13 19:06:00,
2013-10-13 12:11:00,50.1,46.7,30.30,NNW,335,0.0,3.0,88,0.00,,,0.00,WUHU216DAVISVP2,2013-10-13 19:11:00,
2013-10-13 12:16:00,50.0,46.9,30.30,WNW,302,1.0,3.0,89,0.00,,,0.00,WUHU216DAVISVP2,2013-10-13 19:16:00,
2013-10-13 12:21:00,50.0,46.9,30.30,NNW,336,0.0,3.0,89,0.00,,,0.00,WUHU216DAVISVP2,2013-10-13 19:21:00,
2013-10-13 12:26:00,50.1,47.0,30.30,West,278,1.0,3.0,89,0.00,,,0.00,WUHU216DAVISVP2,2013-10-13 19:26:00,
2013-10-13 12:31:00,50.1,47.0,30.29,North,9,1.0,2.0,89,0.00,,,0.00,WUHU216DAVISVP2,2013-10-13 19:31:00,
2013-10-13 12:36:00,50.3,47.2,30.29,WSW,238,0.0,1.0,89,0.00,,,0.00,WUHU216DAVISVP2,2013-10-13 19:36:00,
2013-10-13 12:41:00,50.3,47.2,30.29,NW,326,1.0,2.0,89,0.00,,,0.00,WUHU216DAVISVP2,2013-10-13 19:41:00,
2013-10-13 12:46:00,49.9,46.8,30.30,NW,325,0.0,4.0,89,0.00,,,0.00,WUHU216DAVISVP2,2013-10-13 19:46:00,
2013-10-13 12:51:00,49.8,46.7,30.29,WSW,248,2.0,4.0,89,0.00,,,0.00,WUHU216DAVISVP2,2013-10-13 19:51:00,
2013-10-13 12:56:00,49.7,46.6,30.29,West,272,0.0,3.0,89,0.00,,,0.00,WUHU216DAVISVP2,2013-10-13 19:56:00,
2013-10-13 13:01:00,49.9,46.8,30.29,WSW,253,0.0,3.0,89,0.00,,,0.00,WUHU216DAVISVP2,2013-10-13 20:01:00,
2013-10-13 13:06:00,50.2,47.1,30.29,West,280,2.0,3.0,89,0.00,,,0.00,WUHU216DAVISVP2,2013-10-13 20:06:00,
2013-10-13 13:11:00,50.3,46.9,30.29,NW,320,3.0,3.0,88,0.00,,,0.00,WUHU216DAVISVP2,2013-10-13 20:11:00,
2013-10-13 13:16:00,50.1,46.7,30.29,NNW,330,2.0,4.0,88,0.00,,,0.00,WUHU216DAVISVP2,2013-10-13 20:16:00,
2013-10-13 13:22:00,50.0,46.3,30.29,NNW,346,0.0,4.0,87,0.00,,,0.00,WUHU216DAVISVP2,2013-10-13 20:22:00,
2013-10-13 13:27:00,50.1,46.7,30.29,West,276,0.0,3.0,88,0.00,,,0.00,WUHU216DAVISVP2,2013-10-13 20:27:00,
2013-10-13 13:32:00,50.4,47.2,30.29,SW,220,0.0,5.0,89,0.00,,,0.00,WUHU216DAVISVP2,2013-10-13 20:32:00,
2013-10-13 13:36:00,50.6,46.9,30.29,WNW,296,2.0,6.0,87,0.00,,,0.00,WUHU216DAVISVP2,2013-10-13 20:36:00,
2013-10-13 13:42:00,50.4,46.7,30.29,NNW,338,2.0,6.0,87,0.00,,,0.00,WUHU216DAVISVP2,2013-10-13 20:42:00,
2013-10-13 13:47:00,49.9,46.5,30.29,NNW,343,1.0,5.0,88,0.00,,,0.00,WUHU216DAVISVP2,2013-10-13 20:47:00,
2013-10-13 13:52:00,49.7,46.6,30.29,NNW,333,1.0,5.0,89,0.00,,,0.00,WUHU216DAVISVP2,2013-10-13 20:52:00,
2013-10-13 13:57:00,49.6,46.5,30.28,North,360,0.0,3.0,89,0.00,,,0.00,WUHU216DAVISVP2,2013-10-13 20:57:00,
2013-10-13 14:02:00,49.6,46.5,30.28,NNW,341,2.0,3.0,89,0.00,,,0.00,WUHU216DAVISVP2,2013-10-13 21:02:00,
2013-10-13 14:07:00,49.6,46.2,30.29,NNW,334,2.0,3.0,88,0.00,,,0.00,WUHU216DAVISVP2,2013-10-13 21:07:00,
2013-10-13 14:12:00,49.5,46.1,30.28,NNW,334,1.0,2.0,88,0.00,,,0.00,WUHU216DAVISVP2,2013-10-13 21:12:00,
2013-10-13 14:17:00,49.7,46.6,30.28,NNW,334,0.0,2.0,89,0.00,,,0.00,WUHU216DAVISVP2,2013-10-13 21:17:00,
2013-10-13 14:22:00,49.8,46.4,30.28,NNW,334,0.0,0.0,88,0.00,,,0.00,WUHU216DAVISVP2,2013-10-13 21:22:00,
2013-10-13 14:27:00,49.9,46.2,30.28,North,360,1.0,4.0,87,0.00,,,0.00,WUHU216DAVISVP2,2013-10-13 21:27:00,
2013-10-13 14:32:00,49.9,46.2,30.28,NNE,21,0.0,4.0,87,0.00,,,0.00,WUHU216DAVISVP2,2013-10-13 21:32:00,
2013-10-13 14:37:00,50.2,46.5,30.28,NNW,347,1.0,2.0,87,0.00,,,0.00,WUHU216DAVISVP2,2013-10-13 21:37:00,
2013-10-13 14:42:00,50.2,46.2,30.28,North,355,0.0,4.0,86,0.00,,,0.00,WUHU216DAVISVP2,2013-10-13 21:42:00,
2013-10-13 14:47:00,50.2,46.2,30.29,North,5,0.0,4.0,86,0.00,,,0.00,WUHU216DAVISVP2,2013-10-13 21:47:00,
2013-10-13 14:52:00,50.3,46.3,30.29,North,5,0.0,2.0,86,0.00,,,0.00,WUHU216DAVISVP2,2013-10-13 21:52:00,
2013-10-13 14:57:00,50.5,46.5,30.29,ENE,60,0.0,1.0,86,0.00,,,0.00,WUHU216DAVISVP2,2013-10-13 21:57:00,
2013-10-13 15:02:00,50.8,46.4,30.29,NNW,342,0.0,2.0,85,0.00,,,0.00,WUHU216DAVISVP2,2013-10-13 22:02:00,
2013-10-13 15:07:00,50.7,46.0,30.29,NNW,342,1.0,3.0,84,0.00,,,0.00,WUHU216DAVISVP2,2013-10-13 22:07:00,
2013-10-13 15:12:00,50.8,46.4,30.29,ENE,65,0.0,3.0,85,0.00,,,0.00,WUHU216DAVISVP2,2013-10-13 22:12:00,
2013-10-13 15:17:00,51.0,46.3,30.29,East,98,0.0,1.0,84,0.00,,,0.00,WUHU216DAVISVP2,2013-10-13 22:17:00,
2013-10-13 15:22:00,51.3,46.6,30.29,NNE,22,2.0,2.0,84,0.00,,,0.00,WUHU216DAVISVP2,2013-10-13 22:22:00,
2013-10-13 15:27:00,51.4,46.4,30.29,NE,44,0.0,4.0,83,0.00,,,0.00,WUHU216DAVISVP2,2013-10-13 22:27:00,
2013-10-13 15:32:00,51.4,46.4,30.29,NNW,331,1.0,4.0,83,0.00,,,0.00,WUHU216DAVISVP2,2013-10-13 22:32:00,
2013-10-13 15:37:00,51.5,46.8,30.29,NNW,342,2.0,4.0,84,0.00,,,0.00,WUHU216DAVISVP2,2013-10-13 22:37:00,
2013-10-13 15:42:00,51.6,46.6,30.29,North,355,1.0,4.0,83,0.00,,,0.00,WUHU216DAVISVP2,2013-10-13 22:42:00,
2013-10-13 15:47:00,51.8,46.8,30.29,North,360,0.0,3.0,83,0.00,,,0.00,WUHU216DAVISVP2,2013-10-13 22:47:00,
2013-10-13 15:52:00,52.1,46.8,30.29,North,9,0.0,2.0,82,0.00,,,0.00,WUHU216DAVISVP2,2013-10-13 22:52:00,
2013-10-13 15:57:00,52.3,47.0,30.29,NNW,340,1.0,2.0,82,0.00,,,0.00,WUHU216DAVISVP2,2013-10-13 22:57:00,
2013-10-13 16:02:00,52.4,46.7,30.29,SW,236,0.0,2.0,81,0.00,,,0.00,WUHU216DAVISVP2,2013-10-13 23:02:00,
2013-10-13 16:07:00,52.5,46.5,30.29,NNE,28,1.0,2.0,80,0.00,,,0.00,WUHU216DAVISVP2,2013-10-13 23:07:00,
2013-10-13 16:12:00,52.4,46.8,30.29,NNE,28,0.0,2.0,81,0.00,,,0.00,WUHU216DAVISVP2,2013-10-13 23:12:00,
2013-10-13 16:17:00,52.4,46.8,30.29,SSW,212,0.0,2.0,81,0.00,,,0.00,WUHU216DAVISVP2,2013-10-13 23:17:00,
2013-10-13 16:22:00,52.5,46.5,30.29,North,9,2.0,3.0,80,0.00,,,0.00,WUHU216DAVISVP2,2013-10-13 23:22:00,
2013-10-13 16:27:00,52.6,46.6,30.29,North,5,0.0,4.0,80,0.00,,,0.00,WUHU216DAVISVP2,2013-10-13 23:27:00,
2013-10-13 16:32:00,52.6,46.6,30.29,North,5,0.0,4.0,80,0.00,,,0.00,WUHU216DAVISVP2,2013-10-13 23:32:00,
2013-10-13 16:37:00,52.6,47.0,30.29,North,355,1.0,2.0,81,0.00,,,0.00,WUHU216DAVISVP2,2013-10-13 23:37:00,
2013-10-13 16:42:00,52.6,46.6,30.29,NW,325,0.0,2.0,80,0.00,,,0.00,WUHU216DAVISVP2,2013-10-13 23:42:00,
2013-10-13 16:47:00,52.6,47.0,30.29,North,355,0.0,1.0,81,0.00,,,0.00,WUHU216DAVISVP2,2013-10-13 23:47:00,
2013-10-13 16:52:00,52.7,46.4,30.29,North,355,0.0,1.0,79,0.00,,,0.00,WUHU216DAVISVP2,2013-10-13 23:52:00,
2013-10-13 16:57:00,52.8,46.8,30.29,NNW,340,3.0,3.0,80,0.00,,,0.00,WUHU216DAVISVP2,2013-10-13 23:57:00,
2013-10-13 17:02:00,52.8,46.5,30.29,NNW,340,0.0,3.0,79,0.00,,,0.00,WUHU216DAVISVP2,2013-10-14 00:02:00,
2013-10-13 17:07:00,52.7,46.4,30.29,North,355,0.0,2.0,79,0.00,,,0.00,WUHU216DAVISVP2,2013-10-14 00:07:00,
2013-10-13 17:11:00,52.7,46.7,30.29,North,355,1.0,1.0,80,0.00,,,0.00,WUHU216DAVISVP2,2013-10-14 00:11:00,
2013-10-13 17:16:00,52.7,46.4,30.29,North,360,1.0,2.0,79,0.00,,,0.00,WUHU216DAVISVP2,2013-10-14 00:16:00,
2013-10-13 17:21:00,52.7,46.4,30.29,North,5,0.0,2.0,79,0.00,,,0.00,WUHU216DAVISVP2,2013-10-14 00:21:00,
2013-10-13 17:26:00,52.7,46.4,30.29,North,5,0.0,1.0,79,0.00,,,0.00,WUHU216DAVISVP2,2013-10-14 00:26:00,
2013-10-13 17:31:00,52.7,46.4,30.30,North,5,0.0,0.0,79,0.00,,,0.00,WUHU216DAVISVP2,2013-10-14 00:31:00,
2013-10-13 17:36:00,52.6,46.3,30.30,North,5,0.0,1.0,79,0.00,,,0.00,WUHU216DAVISVP2,2013-10-14 00:36:00,
2013-10-13 17:41:00,52.5,46.2,30.29,North,5,0.0,1.0,79,0.00,,,0.00,WUHU216DAVISVP2,2013-10-14 00:41:00,
2013-10-13 17:46:00,52.4,46.8,30.29,North,5,0.0,0.0,81,0.00,,,0.00,WUHU216DAVISVP2,2013-10-14 00:46:00,
2013-10-13 17:51:00,52.3,47.0,30.29,North,5,0.0,0.0,82,0.00,,,0.00,WUHU216DAVISVP2,2013-10-14 00:51:00,
2013-10-13 17:56:00,52.0,47.0,30.30,North,5,0.0,0.0,83,0.00,,,0.00,WUHU216DAVISVP2,2013-10-14 00:56:00,
2013-10-13 18:04:00,51.7,46.4,30.30,North,0,0.0,0.0,82,0.00,,,0.00,WUHU216DAVISVP2,2013-10-14 01:04:00,
2013-10-13 18:09:00,51.4,46.4,30.30,North,5,0.0,0.0,83,0.00,,,0.00,WUHU216DAVISVP2,2013-10-14 01:09:00,
2013-10-13 18:14:00,51.0,46.3,30.30,North,5,0.0,0.0,84,0.00,,,0.00,WUHU216DAVISVP2,2013-10-14 01:14:00,
2013-10-13 18:19:00,50.6,46.3,30.30,North,5,0.0,0.0,85,0.00,,,0.00,WUHU216DAVISVP2,2013-10-14 01:19:00,
2013-10-13 18:24:00,50.2,46.2,30.30,North,5,0.0,0.0,86,0.00,,,0.00,WUHU216DAVISVP2,2013-10-14 01:24:00,
2013-10-13 18:29:00,49.7,46.0,30.30,North,5,0.0,0.0,87,0.00,,,0.00,WUHU216DAVISVP2,2013-10-14 01:29:00,
2013-10-13 18:34:00,49.4,46.0,30.30,North,5,0.0,0.0,88,0.00,,,0.00,WUHU216DAVISVP2,2013-10-14 01:34:00,
2013-10-13 18:39:00,49.0,45.9,30.30,North,5,0.0,0.0,89,0.00,,,0.00,WUHU216DAVISVP2,2013-10-14 01:39:00,
2013-10-13 18:44:00,48.5,45.7,30.31,North,5,0.0,0.0,90,0.00,,,0.00,WUHU216DAVISVP2,2013-10-14 01:44:00,
2013-10-13 18:49:00,48.2,45.4,30.31,North,5,0.0,0.0,90,0.00,,,0.00,WUHU216DAVISVP2,2013-10-14 01:49:00,
2013-10-13 18:54:00,47.8,45.3,30.31,North,5,0.0,0.0,91,0.00,,,0.00,WUHU216DAVISVP2,2013-10-14 01:54:00,
2013-10-13 18:59:00,47.5,45.0,30.31,North,5,0.0,0.0,91,0.00,,,0.00,WUHU216DAVISVP2,2013-10-14 01:59:00,
2013-10-13 19:04:00,47.2,44.7,30.31,North,5,0.0,0.0,91,0.00,,,0.00,WUHU216DAVISVP2,2013-10-14 02:04:00,
2013-10-13 19:09:00,46.9,44.7,30.31,North,5,0.0,0.0,92,0.00,,,0.00,WUHU216DAVISVP2,2013-10-14 02:09:00,
2013-10-13 19:14:00,46.7,44.2,30.31,North,5,0.0,0.0,91,0.00,,,0.00,WUHU216DAVISVP2,2013-10-14 02:14:00,
2013-10-13 19:19:00,46.3,43.8,30.31,North,5,0.0,0.0,91,0.00,,,0.00,WUHU216DAVISVP2,2013-10-14 02:19:00,
2013-10-13 19:24:00,46.1,43.9,30.31,North,5,0.0,0.0,92,0.00,,,0.00,WUHU216DAVISVP2,2013-10-14 02:24:00,
2013-10-13 19:29:00,45.8,43.6,30.31,North,5,0.0,0.0,92,0.00,,,0.00,WUHU216DAVISVP2,2013-10-14 02:29:00,
2013-10-13 19:34:00,45.6,43.6,30.31,North,5,0.0,0.0,93,0.00,,,0.00,WUHU216DAVISVP2,2013-10-14 02:34:00,
2013-10-13 19:39:00,45.4,43.4,30.32,North,5,0.0,0.0,93,0.00,,,0.00,WUHU216DAVISVP2,2013-10-14 02:39:00,
2013-10-13 19:44:00,45.1,43.2,30.32,North,5,0.0,0.0,93,0.00,,,0.00,WUHU216DAVISVP2,2013-10-14 02:44:00,
2013-10-13 19:49:00,44.9,43.0,30.31,North,5,0.0,0.0,93,0.00,,,0.00,WUHU216DAVISVP2,2013-10-14 02:49:00,
2013-10-13 19:54:00,44.7,42.8,30.32,North,5,0.0,0.0,93,0.00,,,0.00,WUHU216DAVISVP2,2013-10-14 02:54:00,
2013-10-13 19:59:00,44.5,42.8,30.32,North,5,0.0,0.0,94,0.00,,,0.00,WUHU216DAVISVP2,2013-10-14 02:59:00,
2013-10-13 20:04:00,44.3,42.4,30.31,North,5,0.0,0.0,93,0.00,,,0.00,WUHU216DAVISVP2,2013-10-14 03:04:00,
2013-10-13 20:09:00,44.0,42.3,30.32,North,5,0.0,0.0,94,0.00,,,0.00,WUHU216DAVISVP2,2013-10-14 03:09:00,
2013-10-13 20:14:00,43.9,42.3,30.32,North,5,0.0,0.0,94,0.00,,,0.00,WUHU216DAVISVP2,2013-10-14 03:14:00,
2013-10-13 20:19:00,43.7,42.1,30.32,North,5,0.0,0.0,94,0.00,,,0.00,WUHU216DAVISVP2,2013-10-14 03:19:00,
2013-10-13 20:24:00,43.5,41.8,30.32,North,5,0.0,0.0,94,0.00,,,0.00,WUHU216DAVISVP2,2013-10-14 03:24:00,
2013-10-13 20:29:00,43.3,41.6,30.32,North,5,0.0,0.0,94,0.00,,,0.00,WUHU216DAVISVP2,2013-10-14 03:29:00,
2013-10-13 20:34:00,43.2,41.8,30.32,North,5,0.0,0.0,95,0.00,,,0.00,WUHU216DAVISVP2,2013-10-14 03:34:00,
2013-10-13 20:39:00,43.1,41.8,30.32,North,5,0.0,0.0,95,0.00,,,0.00,WUHU216DAVISVP2,2013-10-14 03:39:00,
2013-10-13 20:44:00,42.9,41.6,30.33,North,5,0.0,0.0,95,0.00,,,0.00,WUHU216DAVISVP2,2013-10-14 03:44:00,
2013-10-13 20:49:00,42.7,41.3,30.33,North,5,0.0,0.0,95,0.00,,,0.00,WUHU216DAVISVP2,2013-10-14 03:49:00,
2013-10-13 20:54:00,42.6,41.2,30.33,North,5,0.0,0.0,95,0.00,,,0.00,WUHU216DAVISVP2,2013-10-14 03:54:00,
2013-10-13 20:59:00,42.4,41.0,30.33,North,5,0.0,0.0,95,0.00,,,0.00,WUHU216DAVISVP2,2013-10-14 03:59:00,
2013-10-13 21:01:00,42.3,40.9,30.33,North,5,0.0,0.0,95,0.00,,,0.00,WUHU216DAVISVP2,2013-10-14 04:01:00,
2013-10-13 21:02:00,42.3,40.9,30.33,North,5,0.0,0.0,95,0.00,,,0.00,WUHU216DAVISVP2,2013-10-14 04:02:00,
2013-10-13 21:07:00,42.1,40.8,30.33,North,5,0.0,0.0,95,0.00,,,0.00,WUHU216DAVISVP2,2013-10-14 04:07:00,
2013-10-13 21:12:00,42.0,40.7,30.33,North,5,0.0,0.0,95,0.00,,,0.00,WUHU216DAVISVP2,2013-10-14 04:12:00,
2013-10-13 21:17:00,41.8,40.4,30.33,North,5,0.0,0.0,95,0.00,,,0.00,WUHU216DAVISVP2,2013-10-14 04:17:00,
2013-10-13 21:22:00,41.7,40.3,30.33,North,5,0.0,0.0,95,0.00,,,0.00,WUHU216DAVISVP2,2013-10-14 04:22:00,
2013-10-13 21:27:00,41.5,40.1,30.33,North,5,0.0,0.0,95,0.00,,,0.00,WUHU216DAVISVP2,2013-10-14 04:27:00,
2013-10-13 21:32:00,41.4,40.0,30.33,North,5,0.0,0.0,95,0.00,,,0.00,WUHU216DAVISVP2,2013-10-14 04:32:00,
2013-10-13 21:37:00,41.3,39.9,30.33,North,5,0.0,0.0,95,0.00,,,0.00,WUHU216DAVISVP2,2013-10-14 04:37:00,
2013-10-13 21:42:00,41.1,39.7,30.33,North,5,0.0,0.0,95,0.00,,,0.00,WUHU216DAVISVP2,2013-10-14 04:42:00,
2013-10-13 21:47:00,41.0,39.6,30.34,North,5,0.0,0.0,95,0.00,,,0.00,WUHU216DAVISVP2,2013-10-14 04:47:00,
2013-10-13 21:52:00,40.9,39.5,30.33,North,5,0.0,0.0,95,0.00,,,0.00,WUHU216DAVISVP2,2013-10-14 04:52:00,
2013-10-13 21:57:00,40.8,39.4,30.34,North,5,0.0,0.0,95,0.00,,,0.00,WUHU216DAVISVP2,2013-10-14 04:57:00,
2013-10-13 22:02:00,40.6,39.2,30.34,North,5,0.0,0.0,95,0.00,,,0.00,WUHU216DAVISVP2,2013-10-14 05:02:00,
2013-10-13 22:07:00,40.6,39.5,30.34,North,5,0.0,0.0,96,0.00,,,0.00,WUHU216DAVISVP2,2013-10-14 05:07:00,
2013-10-13 22:12:00,40.5,39.4,30.34,North,5,0.0,0.0,96,0.00,,,0.00,WUHU216DAVISVP2,2013-10-14 05:12:00,
2013-10-13 22:17:00,40.6,39.5,30.34,North,5,0.0,1.0,96,0.00,,,0.00,WUHU216DAVISVP2,2013-10-14 05:17:00,
2013-10-13 22:22:00,40.5,39.4,30.34,North,5,0.0,1.0,96,0.00,,,0.00,WUHU216DAVISVP2,2013-10-14 05:22:00,
2013-10-13 22:27:00,40.5,39.4,30.34,North,5,0.0,0.0,96,0.00,,,0.00,WUHU216DAVISVP2,2013-10-14 05:27:00,
2013-10-13 22:32:00,40.5,39.4,30.34,North,5,0.0,0.0,96,0.00,,,0.00,WUHU216DAVISVP2,2013-10-14 05:32:00,
2013-10-13 22:37:00,40.5,39.4,30.34,North,5,0.0,0.0,96,0.00,,,0.00,WUHU216DAVISVP2,2013-10-14 05:37:00,
2013-10-13 22:42:00,40.4,39.3,30.34,North,5,0.0,0.0,96,0.00,,,0.00,WUHU216DAVISVP2,2013-10-14 05:42:00,
2013-10-13 22:47:00,40.4,39.3,30.34,North,5,0.0,0.0,96,0.00,,,0.00,WUHU216DAVISVP2,2013-10-14 05:47:00,
2013-10-13 22:52:00,40.3,39.2,30.34,North,5,0.0,0.0,96,0.00,,,0.00,WUHU216DAVISVP2,2013-10-14 05:52:00,
2013-10-13 22:57:00,40.2,39.1,30.34,North,5,0.0,0.0,96,0.00,,,0.00,WUHU216DAVISVP2,2013-10-14 05:57:00,
2013-10-13 23:02:00,40.1,39.0,30.34,North,5,0.0,0.0,96,0.00,,,0.00,WUHU216DAVISVP2,2013-10-14 06:02:00,
2013-10-13 23:07:00,40.0,38.9,30.34,North,5,0.0,0.0,96,0.00,,,0.00,WUHU216DAVISVP2,2013-10-14 06:07:00,
2013-10-13 23:12:00,39.9,38.8,30.34,North,5,0.0,0.0,96,0.00,,,0.00,WUHU216DAVISVP2,2013-10-14 06:12:00,
2013-10-13 23:17:00,39.8,38.7,30.34,North,5,0.0,0.0,96,0.00,,,0.00,WUHU216DAVISVP2,2013-10-14 06:17:00,
2013-10-13 23:22:00,39.8,38.7,30.34,North,5,0.0,0.0,96,0.00,,,0.00,WUHU216DAVISVP2,2013-10-14 06:22:00,
2013-10-13 23:27:00,39.8,38.7,30.34,ENE,72,0.0,0.0,96,0.00,,,0.00,WUHU216DAVISVP2,2013-10-14 06:27:00,
2013-10-13 23:32:00,39.8,38.7,30.34,ENE,72,0.0,0.0,96,0.00,,,0.00,WUHU216DAVISVP2,2013-10-14 06:32:00,
2013-10-13 23:37:00,39.9,39.1,30.35,ENE,72,0.0,0.0,97,0.00,,,0.00,WUHU216DAVISVP2,2013-10-14 06:37:00,
2013-10-13 23:42:00,39.9,39.1,30.35,ENE,61,0.0,0.0,97,0.00,,,0.00,WUHU216DAVISVP2,2013-10-14 06:42:00,
2013-10-13 23:47:00,39.9,38.8,30.35,ENE,61,0.0,0.0,96,0.00,,,0.00,WUHU216DAVISVP2,2013-10-14 06:47:00,
2013-10-13 23:52:00,39.8,38.7,30.35,ENE,61,0.0,0.0,96,0.00,,,0.00,WUHU216DAVISVP2,2013-10-14 06:52:00,
2013-10-13 23:57:00,39.9,38.8,30.35,ENE,61,0.0,1.0,96,0.00,,,0.00,WUHU216DAVISVP2,2013-10-14 06:57:00,